Visit the IPS Meteostar Home Page IPSM Minneapolis-St. Paul International Airport FORECAST

Minneapolis, Minnesota

35

58

55

50

50

52

52

52

28
28
35
32
32
38
40
42

8 miles away at Minneapolis-St. Paul International Airport 2:53 GMT

Weather:

 Clear 

Wind:

CALM

Temperature:

35 ° F

Pressure:

30.37

Dew Point:

20 ° F

Relative Humidity:

50

Feels Like:

35 ° F

Visibility:

10 miles


Aviation Observations:

KMSP 210253Z 00000KT 10SM CLR 02/M07 A3033 RMK AO2 SLP278 T00171067 51003 =

National Weather Service Forecast:
Hennepin
151 PM CDT SAT OCT 20 2018

TONIGHT

Clear. Lows in the upper 20s. West winds around 5 mph shifting to the southwest after midnight.

SUNDAY

Not as cool. Sunny. Highs in the upper 50s. Southwest winds 10 to 15 mph.

SUNDAY NIGHT

Clear. Lows in the mid 30s. West winds around 5 mph.

MONDAY

Sunny. Highs in the mid 50s. Northwest winds 10 to 15 mph.

MONDAY NIGHT

Clear. Lows in the lower 30s. Northwest winds 5 to 10 mph.

TUESDAY THROUGH WEDNESDAY

Clear. Highs near 50. Lows in the lower 30s.

WEDNESDAY NIGHT AND THURSDAY

Partly cloudy. Lows in the upper 30s. Highs in the lower 50s.

THURSDAY NIGHT AND FRIDAY

Mostly cloudy. Lows near 40. Highs in the lower 50s.

FRIDAY NIGHT

Mostly cloudy with a 30 percent chance of showers. Lows in the lower 40s.

SATURDAY

Showers likely in the morning, then a chance of showers in the afternoon. Highs in the lower 50s. Chance of rain 60 percent.


Visit the IPS Meteostar Home Page